Norfolk, Virginia
Current Conditions -  °F | °C
As of 6:51 PM on Sunday 21 Dec 2014 (Local Time) from KORF Reporting Station
Clear Clear  
Wind Chill:   Ceiling: Unl
Heat Index:   Visibility: 10mi
Dew Point: -1°   Wind: 0mph
Humidity: 76%   Direction: NA
Pressure: 30.32"   Gusts: NA
Location:  36.85°N, 76.28°W
Report Text: KORF 212351Z AUTO 00000KT 10SM CLR 03/M01 A3032 RMK AO2 SLP265 T00331006 10061 20022 51016 TSNO
Loading
Personal Weather Stations






























Interactive Weather Map New forecast layout! Learn more

10-Day Weather Forecast

Advertisements
Track Severe Weather on mobile